createdAt,value
2018-03-19T00:01:01.418Z,4.15
2018-03-19T00:02:07.105Z,4.72
2018-03-19T00:03:12.812Z,4.40
2018-03-19T00:04:18.569Z,4.65
2018-03-19T00:05:24.552Z,5.00
2018-03-19T00:06:31.048Z,3.75
2018-03-19T00:07:36.765Z,4.32
2018-03-19T00:08:42.468Z,4.20
2018-03-19T00:09:49.694Z,5.53
2018-03-19T00:10:55.401Z,3.55
2018-03-19T00:12:01.893Z,3.58
2018-03-19T00:13:07.608Z,4.50
2018-03-19T00:14:14.089Z,4.00
2018-03-19T00:15:19.791Z,5.35
2018-03-19T00:16:26.275Z,5.43
2018-03-19T00:17:32.004Z,4.50
2018-03-19T00:18:38.496Z,4.57
2018-03-19T00:19:44.224Z,5.22
2018-03-19T00:20:49.918Z,4.90
2018-03-19T00:21:57.140Z,4.70
2018-03-19T00:23:02.865Z,4.90
2018-03-19T00:24:09.008Z,4.35
2018-03-19T00:25:15.491Z,3.15
2018-03-19T00:26:21.314Z,3.72
2018-03-19T00:27:28.002Z,3.87
2018-03-19T00:28:33.738Z,4.80
2018-03-19T00:29:39.453Z,4.43
2018-03-19T00:30:45.389Z,5.45
2018-03-19T00:31:51.872Z,3.90
2018-03-19T00:32:57.579Z,4.65
2018-03-19T00:34:03.317Z,5.05
2018-03-19T00:35:09.013Z,4.60
2018-03-19T00:36:14.524Z,4.12
2018-03-19T00:37:20.997Z,4.75
2018-03-19T00:38:26.709Z,4.60
2018-03-19T00:39:33.208Z,4.62
2018-03-19T00:40:38.731Z,4.70
2018-03-19T00:41:44.443Z,4.35
2018-03-19T00:42:50.000Z,3.12
2018-03-19T00:43:55.710Z,5.62
2018-03-19T00:45:01.432Z,4.47
2018-03-19T00:46:07.148Z,3.90
2018-03-19T00:47:12.887Z,3.67
2018-03-19T00:48:18.607Z,5.68
2018-03-19T00:49:24.348Z,4.15
2018-03-19T00:50:30.068Z,4.15
2018-03-19T00:51:36.555Z,4.82
2018-03-19T00:52:42.262Z,4.80
2018-03-19T00:53:48.746Z,2.62
2018-03-19T00:54:54.453Z,2.78
2018-03-19T00:56:00.172Z,3.80
2018-03-19T00:57:05.885Z,5.50
2018-03-19T00:58:11.618Z,2.60
2018-03-19T00:59:17.330Z,4.32
2018-03-19T01:00:23.819Z,4.05
2018-03-19T01:01:29.559Z,4.40
2018-03-19T01:02:35.269Z,4.57
2018-03-19T01:03:40.978Z,3.37
2018-03-19T01:04:46.687Z,4.37
2018-03-19T01:05:52.393Z,4.00
2018-03-19T01:06:58.894Z,3.40
2018-03-19T01:08:04.588Z,5.40
2018-03-19T01:09:11.367Z,3.95
2018-03-19T01:10:19.932Z,5.00
2018-03-19T01:11:25.810Z,4.43
2018-03-19T01:12:32.308Z,4.00
2018-03-19T01:13:38.032Z,3.70
2018-03-19T01:14:43.762Z,3.90
2018-03-19T01:15:49.460Z,3.67
2018-03-19T01:16:55.203Z,4.22
2018-03-19T01:18:00.946Z,2.95
2018-03-19T01:19:06.332Z,4.65
2018-03-19T01:20:12.040Z,4.78
2018-03-19T01:21:18.540Z,3.65
2018-03-19T01:22:24.239Z,4.78
2018-03-19T01:23:29.955Z,5.35
2018-03-19T01:24:35.673Z,4.82
2018-03-19T01:25:41.375Z,5.25
2018-03-19T01:26:47.855Z,4.12
2018-03-19T01:27:53.553Z,5.32
2018-03-19T01:29:00.065Z,5.07
2018-03-19T01:30:05.452Z,4.32
2018-03-19T01:31:11.931Z,4.90
2018-03-19T01:32:18.394Z,5.05
2018-03-19T01:33:24.111Z,5.70
2018-03-19T01:34:30.622Z,5.43
2018-03-19T01:35:36.323Z,5.03
2018-03-19T01:36:42.028Z,4.93
2018-03-19T01:37:47.752Z,5.62
2018-03-19T01:38:53.473Z,5.18
2018-03-19T01:39:59.215Z,6.35
2018-03-19T01:41:04.694Z,4.65
2018-03-19T01:42:10.416Z,5.60
2018-03-19T01:43:16.138Z,5.80
2018-03-19T01:44:21.854Z,4.75
2018-03-19T01:45:27.593Z,5.97
2018-03-19T01:46:33.298Z,5.25
2018-03-19T01:47:39.007Z,5.95
2018-03-19T01:48:44.748Z,6.55
2018-03-19T01:49:50.456Z,5.25
2018-03-19T01:50:56.182Z,6.20
2018-03-19T01:52:02.650Z,6.00
2018-03-19T01:53:08.046Z,5.90
2018-03-19T01:54:13.764Z,5.53
2018-03-19T01:55:19.456Z,5.62
2018-03-19T01:56:25.940Z,5.50
2018-03-19T01:57:31.743Z,5.47
2018-03-19T01:58:37.450Z,5.87
2018-03-19T01:59:43.169Z,5.90
2018-03-19T02:00:48.869Z,4.65
2018-03-19T02:01:54.645Z,4.10
2018-03-19T02:03:00.336Z,4.28
2018-03-19T02:04:06.814Z,5.30
2018-03-19T02:05:13.278Z,4.53
2018-03-19T02:06:18.998Z,5.40
2018-03-19T02:07:25.493Z,5.43
2018-03-19T02:08:31.201Z,4.82
2018-03-19T02:09:37.673Z,6.20
2018-03-19T02:10:43.388Z,5.18
2018-03-19T02:11:49.089Z,5.28
2018-03-19T02:12:55.206Z,5.57
2018-03-19T02:14:00.912Z,5.50
2018-03-19T02:15:06.307Z,4.82
2018-03-19T02:16:12.025Z,4.47
2018-03-19T02:17:17.729Z,4.30
2018-03-19T02:18:23.465Z,5.80
2018-03-19T02:19:28.837Z,5.10
2018-03-19T02:20:34.213Z,4.68
2018-03-19T02:21:39.733Z,4.07
2018-03-19T02:22:45.452Z,5.68
2018-03-19T02:23:51.177Z,4.60
2018-03-19T02:24:57.650Z,4.40
2018-03-19T02:26:03.352Z,5.15
2018-03-19T02:27:09.061Z,5.70
2018-03-19T02:28:14.765Z,5.07
2018-03-19T02:29:21.249Z,5.20
2018-03-19T02:30:26.966Z,5.40
2018-03-19T02:31:32.673Z,5.22
2018-03-19T02:32:39.148Z,5.37
2018-03-19T02:33:45.626Z,6.53
2018-03-19T02:34:51.374Z,4.95
2018-03-19T02:35:57.098Z,5.07
2018-03-19T02:37:02.809Z,4.70
2018-03-19T02:38:08.517Z,4.65
2018-03-19T02:39:14.217Z,3.53
2018-03-19T02:40:19.948Z,5.00
2018-03-19T02:41:26.421Z,4.28
2018-03-19T02:42:32.133Z,4.70
2018-03-19T02:43:37.873Z,2.58
2018-03-19T02:44:44.905Z,4.57
2018-03-19T02:45:50.626Z,3.95
2018-03-19T02:46:56.440Z,3.90
2018-03-19T02:48:02.326Z,4.28
2018-03-19T02:49:08.057Z,3.50
2018-03-19T02:50:13.754Z,4.47
2018-03-19T02:51:20.316Z,4.53
2018-03-19T02:52:26.187Z,3.03
2018-03-19T02:53:31.910Z,4.30
2018-03-19T02:54:37.615Z,4.72
2018-03-19T02:55:43.330Z,3.47
2018-03-19T02:56:48.878Z,4.72
2018-03-19T02:57:54.589Z,3.17
2018-03-19T02:59:00.313Z,4.80
2018-03-19T03:00:05.906Z,5.07
2018-03-19T03:01:11.720Z,4.53
2018-03-19T03:02:17.452Z,3.35
2018-03-19T03:03:23.153Z,3.40
2018-03-19T03:04:28.860Z,4.47
2018-03-19T03:05:34.568Z,4.10
2018-03-19T03:06:40.311Z,3.97
2018-03-19T03:07:46.026Z,5.47
2018-03-19T03:08:52.503Z,5.45
2018-03-19T03:09:58.984Z,4.65
2018-03-19T03:11:04.690Z,4.80
2018-03-19T03:12:11.158Z,4.75
2018-03-19T03:13:16.888Z,4.85
2018-03-19T03:14:22.593Z,5.10
2018-03-19T03:15:28.305Z,4.25
2018-03-19T03:16:33.692Z,6.15
2018-03-19T03:17:40.180Z,4.95
2018-03-19T03:18:45.881Z,5.22
2018-03-19T03:19:51.587Z,5.10
2018-03-19T03:20:57.305Z,6.10
2018-03-19T03:22:03.035Z,5.97
2018-03-19T03:23:09.528Z,5.43
2018-03-19T03:24:15.237Z,6.10
2018-03-19T03:25:21.746Z,5.12
2018-03-19T03:26:27.612Z,6.20
2018-03-19T03:27:33.313Z,6.43
2018-03-19T03:28:39.048Z,5.68
2018-03-19T03:29:44.762Z,4.70
2018-03-19T03:30:51.243Z,5.97
2018-03-19T03:31:56.967Z,5.10
2018-03-19T03:33:02.682Z,4.68
2018-03-19T03:34:09.179Z,6.07
2018-03-19T03:35:14.889Z,5.28
2018-03-19T03:36:21.363Z,5.40
2018-03-19T03:37:27.064Z,5.20
2018-03-19T03:38:32.778Z,4.50
2018-03-19T03:39:38.510Z,5.65
2018-03-19T03:40:44.220Z,5.85
2018-03-19T03:41:49.935Z,6.25
2018-03-19T03:42:56.408Z,6.40
2018-03-19T03:44:02.885Z,6.00
2018-03-19T03:45:08.626Z,4.80
2018-03-19T03:46:14.361Z,6.43
2018-03-19T03:47:20.068Z,5.35
2018-03-19T03:48:26.007Z,5.28
2018-03-19T03:49:31.740Z,4.82
2018-03-19T03:50:37.240Z,5.47
2018-03-19T03:51:42.964Z,4.45
2018-03-19T03:52:48.680Z,5.55
2018-03-19T03:53:55.882Z,5.10
2018-03-19T03:55:01.649Z,6.07
2018-03-19T03:56:07.352Z,5.20
2018-03-19T03:57:13.817Z,4.78
2018-03-19T03:58:19.529Z,5.53
2018-03-19T03:59:25.996Z,4.87
2018-03-19T04:00:32.505Z,5.37
2018-03-19T04:01:38.221Z,4.95
2018-03-19T04:02:43.926Z,5.65
2018-03-19T04:03:49.632Z,4.82
2018-03-19T04:04:55.352Z,5.15
2018-03-19T04:06:01.083Z,5.20
2018-03-19T04:07:06.797Z,6.05
2018-03-19T04:08:12.726Z,5.85
2018-03-19T04:09:18.443Z,5.87
2018-03-19T04:10:24.146Z,4.90
2018-03-19T04:11:29.878Z,5.93
2018-03-19T04:12:36.352Z,5.25
2018-03-19T04:13:42.072Z,5.97
2018-03-19T04:14:48.557Z,4.70
2018-03-19T04:15:54.256Z,5.47
2018-03-19T04:16:59.987Z,6.20
2018-03-19T04:18:05.708Z,5.85
2018-03-19T04:19:11.441Z,5.80
2018-03-19T04:20:17.147Z,5.40
2018-03-19T04:21:22.848Z,5.82
2018-03-19T04:22:28.584Z,5.87
2018-03-19T04:23:34.305Z,5.53
2018-03-19T04:24:40.047Z,6.05
2018-03-19T04:25:45.763Z,4.70
2018-03-19T04:26:51.481Z,5.00
2018-03-19T04:27:57.991Z,5.90
2018-03-19T04:29:03.696Z,5.95
2018-03-19T04:30:09.408Z,4.93
2018-03-19T04:31:15.141Z,4.93
2018-03-19T04:32:20.850Z,5.40
2018-03-19T04:33:26.592Z,6.60
2018-03-19T04:34:32.301Z,6.35
2018-03-19T04:35:38.769Z,5.55
2018-03-19T04:36:44.463Z,5.35
2018-03-19T04:37:50.219Z,5.85
2018-03-19T04:38:56.121Z,5.37
2018-03-19T04:40:01.824Z,5.80
2018-03-19T04:41:07.535Z,5.68
2018-03-19T04:42:13.248Z,5.75
2018-03-19T04:43:18.960Z,6.05
2018-03-19T04:44:24.691Z,5.97
2018-03-19T04:45:30.405Z,4.40
2018-03-19T04:46:36.919Z,4.50
2018-03-19T04:47:42.680Z,6.18
2018-03-19T04:48:49.157Z,5.35
2018-03-19T04:49:54.896Z,5.35
2018-03-19T04:51:00.591Z,5.65
2018-03-19T04:52:06.300Z,6.15
2018-03-19T04:53:12.012Z,4.78
2018-03-19T04:54:17.717Z,5.97
2018-03-19T04:55:23.454Z,5.87
2018-03-19T04:56:29.164Z,5.68
2018-03-19T04:57:34.902Z,7.20
2018-03-19T04:58:41.404Z,5.93
2018-03-19T04:59:47.107Z,6.15
2018-03-19T05:00:52.843Z,5.55
2018-03-19T05:01:59.339Z,5.87
2018-03-19T05:03:05.074Z,6.22
2018-03-19T05:04:10.782Z,5.70
2018-03-19T05:05:16.493Z,6.95
2018-03-19T05:06:22.224Z,5.50
2018-03-19T05:07:27.939Z,4.55
2018-03-19T05:08:33.652Z,6.35
2018-03-19T05:09:39.359Z,5.28
2018-03-19T05:10:45.833Z,6.07
2018-03-19T05:11:52.339Z,6.20
2018-03-19T05:12:58.258Z,6.50
2018-03-19T05:14:04.054Z,5.78
2018-03-19T05:15:09.767Z,7.22
2018-03-19T05:16:15.484Z,5.65
2018-03-19T05:17:21.232Z,6.30
2018-03-19T05:18:26.984Z,6.60
2018-03-19T05:19:32.693Z,6.62
2018-03-19T05:20:38.446Z,6.20
2018-03-19T05:21:44.161Z,6.72
2018-03-19T05:22:50.660Z,6.05
2018-03-19T05:23:56.378Z,5.37
2018-03-19T05:25:02.085Z,6.40
2018-03-19T05:26:07.845Z,6.07
2018-03-19T05:27:14.315Z,5.57
2018-03-19T05:28:20.051Z,5.62
2018-03-19T05:29:26.532Z,6.10
2018-03-19T05:30:32.241Z,6.53
2018-03-19T05:31:38.709Z,5.80
2018-03-19T05:32:44.415Z,5.87
2018-03-19T05:33:50.154Z,7.50
2018-03-19T05:34:56.632Z,6.45
2018-03-19T05:36:03.128Z,6.50
2018-03-19T05:37:08.836Z,6.10
2018-03-19T05:38:14.805Z,5.35
2018-03-19T05:39:20.531Z,5.60
2018-03-19T05:40:27.005Z,5.78
2018-03-19T05:41:32.726Z,5.70
2018-03-19T05:42:39.209Z,6.18
2018-03-19T05:43:44.914Z,6.10
2018-03-19T05:44:50.629Z,5.00
2018-03-19T05:45:56.339Z,7.05
2018-03-19T05:47:02.094Z,6.12
2018-03-19T05:48:08.060Z,6.90
2018-03-19T05:49:14.673Z,7.10
2018-03-19T05:50:20.430Z,6.18
2018-03-19T05:51:26.177Z,5.70
2018-03-19T05:52:32.105Z,7.30
2018-03-19T05:53:37.830Z,5.70
2018-03-19T05:54:44.303Z,6.47
2018-03-19T05:55:50.030Z,6.60
2018-03-19T05:56:55.788Z,7.62
2018-03-19T05:58:01.509Z,7.03
2018-03-19T05:59:07.996Z,7.03
2018-03-19T06:00:13.750Z,6.80
2018-03-19T06:01:19.480Z,7.60
2018-03-19T06:02:25.032Z,7.37
2018-03-19T06:03:30.749Z,7.40
2018-03-19T06:04:36.462Z,6.15
2018-03-19T06:05:42.923Z,6.80
2018-03-19T06:06:49.417Z,6.60
2018-03-19T06:07:55.132Z,6.10
2018-03-19T06:09:00.862Z,6.97
2018-03-19T06:10:06.237Z,6.53
2018-03-19T06:11:12.201Z,6.70
2018-03-19T06:12:18.172Z,7.80
2018-03-19T06:13:23.951Z,6.95
2018-03-19T06:14:29.684Z,7.25
2018-03-19T06:15:35.620Z,7.03
2018-03-19T06:16:41.359Z,7.18
2018-03-19T06:17:47.103Z,7.70
2018-03-19T06:18:53.285Z,5.75
2018-03-19T06:19:59.105Z,6.15
2018-03-19T06:21:04.822Z,7.70
2018-03-19T06:22:10.549Z,7.05
2018-03-19T06:23:16.283Z,7.10
2018-03-19T06:24:22.017Z,7.40
2018-03-19T06:25:29.244Z,7.85
2018-03-19T06:26:35.115Z,7.93
2018-03-19T06:27:41.622Z,6.57
2018-03-19T06:28:47.362Z,5.90
2018-03-19T06:29:53.076Z,6.70
2018-03-19T06:30:58.785Z,7.03
2018-03-19T06:32:04.260Z,7.32
2018-03-19T06:33:10.019Z,6.65
2018-03-19T06:34:15.504Z,6.22
2018-03-19T06:35:21.834Z,5.97
2018-03-19T06:36:27.729Z,6.37
2018-03-19T06:37:33.454Z,7.10
2018-03-19T06:38:39.004Z,6.37
2018-03-19T06:39:44.749Z,6.87
2018-03-19T06:40:50.452Z,6.78
2018-03-19T06:41:56.217Z,7.95
2018-03-19T06:43:02.701Z,6.50
2018-03-19T06:44:08.422Z,7.10
2018-03-19T06:45:14.184Z,6.47
2018-03-19T06:46:19.932Z,7.10
2018-03-19T06:47:27.530Z,6.65
2018-03-19T06:48:35.933Z,6.30
2018-03-19T06:49:41.678Z,5.90
2018-03-19T06:50:47.432Z,6.68
2018-03-19T06:51:53.146Z,5.93
2018-03-19T06:52:58.869Z,7.30
2018-03-19T06:54:04.657Z,6.05
2018-03-19T06:55:10.384Z,6.22
2018-03-19T06:56:16.261Z,7.18
2018-03-19T06:57:22.769Z,6.93
2018-03-19T06:58:28.495Z,7.47
2018-03-19T06:59:34.201Z,7.30
2018-03-19T07:00:39.958Z,5.65
2018-03-19T07:01:45.674Z,7.32
2018-03-19T07:02:51.387Z,7.95
2018-03-19T07:03:57.101Z,8.02
2018-03-19T07:05:02.800Z,6.15
2018-03-19T07:06:09.304Z,7.57
2018-03-19T07:07:15.032Z,6.35
2018-03-19T07:08:20.745Z,6.80
2018-03-19T07:09:26.455Z,5.50
2018-03-19T07:10:32.172Z,7.80
2018-03-19T07:11:37.904Z,7.28
2018-03-19T07:12:44.025Z,9.93
2018-03-19T07:13:50.498Z,8.27
2018-03-19T07:14:56.216Z,7.28
2018-03-19T07:16:02.697Z,6.55
2018-03-19T07:17:08.453Z,8.30
2018-03-19T07:18:14.164Z,7.43
2018-03-19T07:19:20.641Z,7.37
2018-03-19T07:20:26.351Z,8.05
2018-03-19T07:21:32.057Z,7.12
2018-03-19T07:22:37.824Z,6.95
2018-03-19T07:23:43.721Z,8.07
2018-03-19T07:24:49.428Z,7.30
2018-03-19T07:25:55.910Z,8.05
2018-03-19T07:27:01.620Z,8.02
2018-03-19T07:28:08.126Z,6.75
2018-03-19T07:29:13.853Z,6.28
2018-03-19T07:30:19.565Z,7.93
2018-03-19T07:31:26.048Z,6.53
2018-03-19T07:32:31.752Z,7.60
2018-03-19T07:33:37.527Z,6.95
2018-03-19T07:34:43.259Z,7.45
2018-03-19T07:35:49.931Z,7.53
2018-03-19T07:36:55.644Z,8.80
2018-03-19T07:38:01.353Z,7.20
2018-03-19T07:39:06.420Z,6.35
2018-03-19T07:40:12.898Z,8.15
2018-03-19T07:41:18.620Z,6.20
2018-03-19T07:42:25.100Z,7.43
2018-03-19T07:43:30.835Z,7.72
2018-03-19T07:44:36.616Z,8.70
2018-03-19T07:45:42.321Z,7.07
2018-03-19T07:46:48.365Z,6.72
2018-03-19T07:47:54.080Z,8.07
2018-03-19T07:49:00.585Z,8.07
2018-03-19T07:50:06.816Z,8.00
2018-03-19T07:51:12.543Z,7.45
2018-03-19T07:52:19.022Z,7.82
2018-03-19T07:53:24.952Z,8.30
2018-03-19T07:54:31.458Z,8.23
2018-03-19T07:55:37.171Z,8.30
2018-03-19T07:56:42.874Z,8.60
2018-03-19T07:57:49.572Z,7.22
2018-03-19T07:58:55.265Z,8.48
2018-03-19T08:00:01.014Z,9.50
2018-03-19T08:01:06.716Z,8.68
2018-03-19T08:02:12.426Z,8.60
2018-03-19T08:03:18.136Z,9.88
2018-03-19T08:04:24.608Z,10.35
2018-03-19T08:05:31.101Z,10.75
2018-03-19T08:06:36.801Z,8.88
2018-03-19T08:07:43.281Z,10.15
2018-03-19T08:08:48.985Z,10.30
2018-03-19T08:09:54.700Z,9.90
2018-03-19T08:11:00.460Z,10.70
2018-03-19T08:12:06.228Z,10.40
2018-03-19T08:13:12.100Z,9.93
2018-03-19T08:14:18.581Z,10.73
2018-03-19T08:15:24.288Z,9.88
2018-03-19T08:16:30.021Z,9.35
2018-03-19T08:17:36.507Z,8.15
2018-03-19T08:18:42.197Z,9.60
2018-03-19T08:19:47.900Z,9.32
2018-03-19T08:20:53.875Z,9.80
2018-03-19T08:21:59.600Z,10.10
2018-03-19T08:23:05.090Z,8.45
2018-03-19T08:24:11.211Z,9.50
2018-03-19T08:25:17.694Z,11.20
2018-03-19T08:26:23.408Z,9.30
2018-03-19T08:27:29.153Z,9.68
2018-03-19T08:28:34.873Z,9.45
2018-03-19T08:29:40.581Z,9.60
2018-03-19T08:30:46.277Z,9.65
2018-03-19T08:31:52.772Z,9.95
2018-03-19T08:32:58.500Z,7.30
2018-03-19T08:34:04.241Z,8.07
2018-03-19T08:35:09.958Z,9.30
2018-03-19T08:36:16.636Z,9.20
2018-03-19T08:37:22.340Z,9.30
2018-03-19T08:38:28.078Z,9.77
2018-03-19T08:39:33.780Z,8.80
2018-03-19T08:40:39.510Z,9.25
2018-03-19T08:41:45.235Z,9.60
2018-03-19T08:42:51.121Z,9.77
2018-03-19T08:43:56.846Z,10.07
2018-03-19T08:45:02.552Z,9.25
2018-03-19T08:46:08.249Z,9.23
2018-03-19T08:47:13.956Z,8.80
2018-03-19T08:48:19.664Z,8.93
2018-03-19T08:49:26.169Z,8.82
2018-03-19T08:50:31.863Z,8.27
2018-03-19T08:51:37.574Z,9.02
2018-03-19T08:52:43.498Z,8.90
2018-03-19T08:53:49.220Z,10.40
2018-03-19T08:54:54.961Z,7.97
2018-03-19T08:56:00.984Z,10.13
2018-03-19T08:57:07.473Z,10.02
2018-03-19T08:58:13.204Z,10.10
2018-03-19T08:59:18.928Z,10.02
2018-03-19T09:00:25.432Z,9.82
2018-03-19T09:01:31.149Z,10.02
2018-03-19T09:02:36.874Z,10.00
2018-03-19T09:03:42.764Z,9.70
2018-03-19T09:04:48.489Z,9.32
2018-03-19T09:05:54.233Z,10.02
2018-03-19T09:06:59.944Z,8.60
2018-03-19T09:08:06.422Z,8.25
2018-03-19T09:09:12.144Z,8.95
2018-03-19T09:10:18.605Z,8.93
2018-03-19T09:11:25.105Z,8.75
2018-03-19T09:12:30.815Z,9.82
2018-03-19T09:13:36.525Z,9.80
2018-03-19T09:14:42.252Z,8.70
2018-03-19T09:15:48.025Z,9.38
2018-03-19T09:16:54.502Z,9.13
2018-03-19T09:18:00.213Z,10.50
2018-03-19T09:19:06.701Z,10.07
2018-03-19T09:20:12.411Z,10.77
2018-03-19T09:21:18.900Z,9.30
2018-03-19T09:22:24.734Z,10.30
2018-03-19T09:23:30.448Z,10.77
2018-03-19T09:24:36.959Z,11.02
2018-03-19T09:25:42.676Z,9.98
2018-03-19T09:26:48.412Z,9.75
2018-03-19T09:27:54.153Z,10.10
2018-03-19T09:28:59.677Z,8.75
2018-03-19T09:30:05.840Z,10.48
2018-03-19T09:31:12.343Z,9.65
2018-03-19T09:32:18.067Z,9.25
2018-03-19T09:33:23.812Z,10.10
2018-03-19T09:34:29.522Z,9.27
2018-03-19T09:35:35.235Z,9.95
2018-03-19T09:36:40.986Z,8.98
2018-03-19T09:37:46.856Z,9.38
2018-03-19T09:38:52.581Z,8.88
2018-03-19T09:39:59.048Z,9.35
2018-03-19T09:41:04.765Z,10.10
2018-03-19T09:42:11.351Z,10.10
2018-03-19T09:43:17.829Z,9.18
2018-03-19T09:44:23.554Z,10.18
2018-03-19T09:45:29.250Z,8.77
2018-03-19T09:46:34.956Z,9.40
2018-03-19T09:47:41.432Z,8.80
2018-03-19T09:48:47.128Z,9.30
2018-03-19T09:49:52.869Z,8.82
2018-03-19T09:50:59.333Z,9.35
2018-03-19T09:52:05.065Z,9.40
2018-03-19T09:53:10.784Z,9.52
2018-03-19T09:54:16.484Z,9.63
2018-03-19T09:55:22.298Z,8.65
2018-03-19T09:56:28.120Z,8.52
2018-03-19T09:57:34.614Z,9.30
2018-03-19T09:58:40.329Z,8.63
2018-03-19T09:59:46.793Z,9.38
2018-03-19T10:00:52.537Z,9.98
2018-03-19T10:01:58.324Z,7.45
2018-03-19T10:03:04.029Z,8.95
2018-03-19T10:04:09.732Z,8.40
2018-03-19T10:05:15.874Z,9.38
2018-03-19T10:06:21.599Z,10.07
2018-03-19T10:07:27.110Z,8.05
2018-03-19T10:08:32.825Z,9.18
2018-03-19T10:09:38.548Z,9.43
2018-03-19T10:10:45.036Z,8.85
2018-03-19T10:11:50.752Z,9.25
2018-03-19T10:12:57.217Z,7.85
2018-03-19T10:14:02.924Z,8.55
2018-03-19T10:15:08.648Z,9.00
2018-03-19T10:16:14.385Z,8.30
2018-03-19T10:17:20.309Z,8.82
2018-03-19T10:18:26.435Z,9.20
2018-03-19T10:19:32.893Z,8.23
2018-03-19T10:20:39.358Z,7.12
2018-03-19T10:21:45.099Z,8.68
2018-03-19T10:22:51.049Z,9.70
2018-03-19T10:23:56.778Z,6.32
2018-03-19T10:25:03.252Z,8.80
2018-03-19T10:26:08.960Z,9.23
2018-03-19T10:27:14.653Z,8.65
2018-03-19T10:28:21.128Z,8.93
2018-03-19T10:29:26.824Z,8.70
2018-03-19T10:30:32.536Z,9.05
2018-03-19T10:31:37.996Z,7.18
2018-03-19T10:32:43.718Z,10.20
2018-03-19T10:33:49.108Z,7.68
2018-03-19T10:34:54.810Z,7.28
2018-03-19T10:36:01.269Z,7.07
2018-03-19T10:37:06.957Z,6.90
2018-03-19T10:38:12.653Z,7.90
2018-03-19T10:39:18.445Z,7.80
2018-03-19T10:40:24.148Z,8.18
2018-03-19T10:41:29.845Z,8.55
2018-03-19T10:42:35.541Z,8.73
2018-03-19T10:43:41.245Z,8.75
2018-03-19T10:44:46.973Z,7.82
2018-03-19T10:45:53.457Z,7.50
2018-03-19T10:46:59.144Z,9.52
2018-03-19T10:48:04.845Z,8.65
2018-03-19T10:49:10.555Z,8.25
2018-03-19T10:50:17.040Z,8.70
2018-03-19T10:51:22.741Z,7.20
2018-03-19T10:52:28.438Z,7.82
2018-03-19T10:53:34.146Z,7.68
2018-03-19T10:54:39.844Z,8.18
2018-03-19T10:55:45.555Z,7.72
2018-03-19T10:56:51.336Z,7.37
2018-03-19T10:57:57.024Z,8.43
2018-03-19T10:59:02.728Z,8.50
2018-03-19T11:00:08.346Z,8.32
2018-03-19T11:03:09.741Z,6.95
2018-03-19T11:04:16.254Z,7.40
2018-03-19T11:05:27.218Z,7.05
2018-03-19T11:08:14.726Z,7.93
2018-03-19T11:09:25.656Z,6.32
2018-03-19T11:10:31.371Z,8.10
2018-03-19T11:11:37.080Z,6.75
2018-03-19T11:12:42.787Z,7.40
2018-03-19T11:13:48.486Z,7.32
2018-03-19T11:14:54.204Z,7.85
2018-03-19T11:15:59.908Z,7.28
2018-03-19T11:17:05.678Z,9.50
2018-03-19T11:18:11.541Z,6.93
2018-03-19T11:19:17.241Z,7.90
2018-03-19T11:20:22.942Z,7.30
2018-03-19T11:21:29.407Z,6.72
2018-03-19T11:22:35.928Z,7.47
2018-03-19T11:23:41.633Z,6.50
2018-03-19T11:24:47.332Z,7.50
2018-03-19T11:25:53.043Z,7.82
2018-03-19T11:26:58.741Z,6.60
2018-03-19T11:28:05.222Z,6.37
2018-03-19T11:29:10.921Z,6.60
2018-03-19T11:30:17.389Z,8.20
2018-03-19T11:31:23.855Z,7.28
2018-03-19T11:32:29.565Z,6.32
2018-03-19T11:33:35.280Z,7.40
2018-03-19T11:34:40.969Z,7.82
2018-03-19T11:35:47.436Z,6.28
2018-03-19T11:36:53.130Z,6.47
2018-03-19T11:37:58.825Z,6.25
2018-03-19T11:39:03.796Z,7.30
2018-03-19T11:40:11.004Z,7.10
2018-03-19T11:41:17.469Z,7.53
2018-03-19T11:42:23.165Z,7.60
2018-03-19T11:43:28.865Z,5.78
2018-03-19T11:44:34.585Z,6.37
2018-03-19T11:45:41.053Z,6.90
2018-03-19T11:46:47.531Z,5.97
2018-03-19T11:47:53.233Z,7.18
2018-03-19T11:48:59.699Z,6.75
2018-03-19T11:50:06.194Z,7.20
2018-03-19T11:51:11.900Z,7.28
2018-03-19T11:52:18.356Z,4.62
2018-03-19T11:53:24.072Z,5.47
2018-03-19T11:54:29.756Z,5.80
2018-03-19T11:55:35.487Z,7.43
2018-03-19T11:56:40.966Z,6.22
2018-03-19T11:57:46.669Z,6.40
2018-03-19T11:58:52.364Z,5.80
2018-03-19T11:59:58.349Z,7.20
2018-03-19T12:01:03.885Z,6.93
2018-03-19T12:02:09.622Z,5.95
2018-03-19T12:03:16.093Z,6.37
2018-03-19T12:04:21.788Z,7.75
2018-03-19T12:05:27.497Z,7.32
2018-03-19T12:06:33.224Z,6.70
2018-03-19T12:07:38.917Z,6.60
2018-03-19T12:08:44.625Z,7.35
2018-03-19T12:09:50.394Z,6.45
2018-03-19T12:10:56.080Z,6.37
2018-03-19T12:12:01.819Z,6.70
2018-03-19T12:13:07.528Z,6.68
2018-03-19T12:14:14.004Z,6.80
2018-03-19T12:15:20.464Z,6.80
2018-03-19T12:16:26.198Z,6.18
2018-03-19T12:17:32.659Z,6.50
2018-03-19T12:18:38.402Z,6.30
2018-03-19T12:19:44.858Z,6.10
2018-03-19T12:20:51.330Z,6.72
2018-03-19T12:21:57.068Z,7.62
2018-03-19T12:23:02.590Z,7.10
2018-03-19T12:24:08.456Z,6.15
2018-03-19T12:25:14.145Z,6.03
2018-03-19T12:26:19.844Z,6.57
2018-03-19T12:27:26.305Z,6.10
2018-03-19T12:28:32.024Z,5.72
2018-03-19T12:29:37.724Z,7.05
2018-03-19T12:30:43.436Z,7.03
2018-03-19T12:31:49.134Z,6.20
2018-03-19T12:32:55.589Z,5.85
2018-03-19T12:34:02.069Z,6.18
2018-03-19T12:35:07.759Z,6.93
2018-03-19T12:36:13.469Z,5.85
2018-03-19T12:37:19.156Z,7.10
2018-03-19T12:38:25.615Z,6.28
2018-03-19T12:39:32.092Z,6.05
2018-03-19T12:40:37.795Z,7.28
2018-03-19T12:41:43.492Z,6.20
2018-03-19T12:42:49.965Z,7.53
2018-03-19T12:43:55.669Z,7.40
2018-03-19T12:45:02.145Z,5.25
2018-03-19T12:46:07.829Z,5.90
2018-03-19T12:47:15.038Z,6.25
2018-03-19T12:48:21.505Z,6.53
2018-03-19T12:49:27.958Z,6.65
2018-03-19T12:50:33.693Z,6.60
2018-03-19T12:51:40.255Z,5.95
2018-03-19T12:52:46.708Z,5.90
2018-03-19T12:53:53.162Z,5.90
2018-03-19T12:54:59.636Z,6.22
2018-03-19T12:56:05.364Z,5.78
2018-03-19T12:57:11.852Z,6.18
2018-03-19T12:58:17.537Z,5.85
2018-03-19T12:59:23.287Z,6.87
2018-03-19T13:00:28.987Z,5.80
2018-03-19T13:01:34.698Z,5.60
2018-03-19T13:02:40.206Z,6.18
2018-03-19T13:03:47.419Z,4.28
2018-03-19T13:04:53.145Z,5.75
2018-03-19T13:05:59.609Z,6.20
2018-03-19T13:07:05.320Z,6.45
2018-03-19T13:08:11.082Z,5.90
2018-03-19T13:09:17.549Z,7.12
2018-03-19T13:10:24.013Z,6.00
2018-03-19T13:11:29.760Z,5.97
2018-03-19T13:12:35.680Z,6.47
2018-03-19T13:13:42.151Z,5.32
2018-03-19T13:14:48.601Z,6.37
2018-03-19T13:15:54.347Z,6.65
2018-03-19T13:17:00.124Z,7.05
2018-03-19T13:18:05.846Z,7.18
2018-03-19T13:19:11.537Z,6.18
2018-03-19T13:20:17.274Z,6.03
2018-03-19T13:21:22.974Z,6.80
2018-03-19T13:22:28.667Z,6.50
2018-03-19T13:23:34.410Z,6.85
2018-03-19T13:24:40.378Z,5.50
2018-03-19T13:25:46.833Z,5.15
2018-03-19T13:26:53.297Z,4.57
2018-03-19T13:27:59.001Z,5.25
2018-03-19T13:29:04.714Z,6.55
2018-03-19T13:30:10.434Z,6.30
2018-03-19T13:31:16.146Z,6.68
2018-03-19T13:32:22.613Z,5.80
2018-03-19T13:33:28.354Z,6.30
2018-03-19T13:34:34.816Z,6.43
2018-03-19T13:35:41.282Z,6.37
2018-03-19T13:36:46.977Z,6.62
2018-03-19T13:37:52.675Z,6.57
2018-03-19T13:38:58.381Z,5.72
2018-03-19T13:40:04.572Z,6.18
2018-03-19T13:41:10.953Z,5.93
2018-03-19T13:42:16.661Z,6.45
2018-03-19T13:43:22.370Z,6.30
2018-03-19T13:44:28.838Z,6.97
2018-03-19T13:45:34.565Z,6.00
2018-03-19T13:46:40.244Z,5.75
2018-03-19T13:47:45.929Z,6.53
2018-03-19T13:48:51.627Z,6.10
2018-03-19T13:49:57.325Z,6.20
2018-03-19T13:51:03.044Z,6.43
2018-03-19T13:52:08.744Z,7.10
2018-03-19T13:53:14.444Z,6.32
2018-03-19T13:54:20.904Z,6.28
2018-03-19T13:55:27.369Z,5.87
2018-03-19T13:56:33.848Z,5.85
2018-03-19T13:57:39.541Z,6.30
2018-03-19T13:58:45.317Z,6.60
2018-03-19T13:59:52.001Z,6.65
2018-03-19T14:00:57.720Z,6.55
2018-03-19T14:02:03.441Z,6.62
2018-03-19T14:03:08.888Z,6.22
2018-03-19T14:04:15.353Z,5.82
2018-03-19T14:05:22.033Z,5.72
2018-03-19T14:06:27.764Z,5.70
2018-03-19T14:07:33.452Z,5.40
2018-03-19T14:08:39.163Z,5.57
2018-03-19T14:09:44.873Z,6.10
2018-03-19T14:10:51.344Z,5.68
2018-03-19T14:11:57.072Z,6.70
2018-03-19T14:13:03.543Z,6.30
2018-03-19T14:14:09.246Z,6.25
2018-03-19T14:15:14.939Z,6.60
2018-03-19T14:16:20.300Z,6.43
2018-03-19T14:17:26.028Z,5.85
2018-03-19T14:18:31.729Z,6.20
2018-03-19T14:19:37.503Z,7.70
2018-03-19T14:20:44.128Z,5.85
2018-03-19T14:21:50.588Z,6.22
2018-03-19T14:22:57.068Z,6.20
2018-03-19T14:24:02.769Z,4.72
2018-03-19T14:25:09.225Z,5.60
2018-03-19T14:26:15.697Z,5.00
2018-03-19T14:27:22.167Z,5.68
2018-03-19T14:28:27.881Z,5.95
2018-03-19T14:29:34.341Z,5.85
2018-03-19T14:30:40.806Z,5.82
2018-03-19T14:31:47.285Z,5.80
2018-03-19T14:32:53.005Z,5.40
2018-03-19T14:33:59.482Z,4.82
2018-03-19T14:35:05.214Z,6.25
2018-03-19T14:36:11.675Z,6.30
2018-03-19T14:37:18.114Z,5.60
2018-03-19T14:38:23.873Z,6.68
2018-03-19T14:39:30.386Z,6.43
2018-03-19T14:40:36.984Z,6.10